sensor_id;sensor_type;location;lat;lon;timestamp;temperature;humidity
11035;DHT22;5571;48.110;-1.706;2024-02-28T00:00:11;6.50;99.90
11035;DHT22;5571;48.110;-1.706;2024-02-28T00:02:37;6.50;99.90
11035;DHT22;5571;48.110;-1.706;2024-02-28T00:05:02;6.50;99.90
11035;DHT22;5571;48.110;-1.706;2024-02-28T00:07:28;6.60;99.90
11035;DHT22;5571;48.110;-1.706;2024-02-28T00:09:56;6.70;99.90
11035;DHT22;5571;48.110;-1.706;2024-02-28T00:12:23;6.50;99.90
11035;DHT22;5571;48.110;-1.706;2024-02-28T00:14:51;6.60;99.90
11035;DHT22;5571;48.110;-1.706;2024-02-28T00:17:16;6.50;99.90
11035;DHT22;5571;48.110;-1.706;2024-02-28T00:19:42;6.50;99.90
11035;DHT22;5571;48.110;-1.706;2024-02-28T00:22:09;6.40;99.90
11035;DHT22;5571;48.110;-1.706;2024-02-28T00:24:34;6.40;99.90
11035;DHT22;5571;48.110;-1.706;2024-02-28T00:27:00;6.30;99.90
11035;DHT22;5571;48.110;-1.706;2024-02-28T00:29:26;6.30;99.90
11035;DHT22;5571;48.110;-1.706;2024-02-28T00:31:52;6.20;99.90
11035;DHT22;5571;48.110;-1.706;2024-02-28T00:34:17;6.20;99.90
11035;DHT22;5571;48.110;-1.706;2024-02-28T00:36:43;6.20;99.90
11035;DHT22;5571;48.110;-1.706;2024-02-28T00:39:10;6.30;99.90
11035;DHT22;5571;48.110;-1.706;2024-02-28T00:41:35;6.30;99.90
11035;DHT22;5571;48.110;-1.706;2024-02-28T00:44:02;6.40;99.90
11035;DHT22;5571;48.110;-1.706;2024-02-28T00:46:28;6.40;99.90
11035;DHT22;5571;48.110;-1.706;2024-02-28T00:48:54;6.50;99.90
11035;DHT22;5571;48.110;-1.706;2024-02-28T00:51:19;6.40;99.90
11035;DHT22;5571;48.110;-1.706;2024-02-28T00:53:45;6.30;99.90
11035;DHT22;5571;48.110;-1.706;2024-02-28T00:56:11;6.30;99.90
11035;DHT22;5571;48.110;-1.706;2024-02-28T00:58:36;6.30;99.90
11035;DHT22;5571;48.110;-1.706;2024-02-28T01:01:02;6.30;99.90
11035;DHT22;5571;48.110;-1.706;2024-02-28T01:03:28;6.30;99.90
11035;DHT22;5571;48.110;-1.706;2024-02-28T01:05:53;6.30;99.90
11035;DHT22;5571;48.110;-1.706;2024-02-28T01:08:19;6.40;99.90
11035;DHT22;5571;48.110;-1.706;2024-02-28T01:10:45;6.40;99.90
11035;DHT22;5571;48.110;-1.706;2024-02-28T01:13:11;6.40;99.90
11035;DHT22;5571;48.110;-1.706;2024-02-28T01:15:40;6.40;99.90
11035;DHT22;5571;48.110;-1.706;2024-02-28T01:18:06;6.50;99.90
11035;DHT22;5571;48.110;-1.706;2024-02-28T01:20:31;6.40;99.90
11035;DHT22;5571;48.110;-1.706;2024-02-28T01:22:57;6.50;99.90
11035;DHT22;5571;48.110;-1.706;2024-02-28T01:25:23;6.60;99.90
11035;DHT22;5571;48.110;-1.706;2024-02-28T01:27:48;6.60;99.90
11035;DHT22;5571;48.110;-1.706;2024-02-28T01:30:14;6.60;99.90
11035;DHT22;5571;48.110;-1.706;2024-02-28T01:32:39;6.60;99.90
11035;DHT22;5571;48.110;-1.706;2024-02-28T01:35:07;6.70;99.90
11035;DHT22;5571;48.110;-1.706;2024-02-28T01:37:33;6.70;99.90
11035;DHT22;5571;48.110;-1.706;2024-02-28T01:39:59;6.70;99.90
11035;DHT22;5571;48.110;-1.706;2024-02-28T01:42:24;6.70;99.90
11035;DHT22;5571;48.110;-1.706;2024-02-28T01:44:50;6.60;99.90
11035;DHT22;5571;48.110;-1.706;2024-02-28T01:47:15;6.60;99.90
11035;DHT22;5571;48.110;-1.706;2024-02-28T01:49:42;6.70;99.90
11035;DHT22;5571;48.110;-1.706;2024-02-28T01:52:09;6.70;99.90
11035;DHT22;5571;48.110;-1.706;2024-02-28T01:54:35;6.70;99.90
11035;DHT22;5571;48.110;-1.706;2024-02-28T01:57:01;6.60;99.90
11035;DHT22;5571;48.110;-1.706;2024-02-28T01:59:28;6.50;99.90
11035;DHT22;5571;48.110;-1.706;2024-02-28T02:01:54;6.50;99.90
11035;DHT22;5571;48.110;-1.706;2024-02-28T02:04:20;6.40;99.90
11035;DHT22;5571;48.110;-1.706;2024-02-28T02:06:47;6.30;99.90
11035;DHT22;5571;48.110;-1.706;2024-02-28T02:09:15;6.30;99.90
11035;DHT22;5571;48.110;-1.706;2024-02-28T02:11:41;6.30;99.90
11035;DHT22;5571;48.110;-1.706;2024-02-28T02:14:07;6.30;99.90
11035;DHT22;5571;48.110;-1.706;2024-02-28T02:16:32;6.40;99.90
11035;DHT22;5571;48.110;-1.706;2024-02-28T02:18:58;6.40;99.90
11035;DHT22;5571;48.110;-1.706;2024-02-28T02:21:26;6.40;99.90
11035;DHT22;5571;48.110;-1.706;2024-02-28T02:23:55;6.40;99.90
11035;DHT22;5571;48.110;-1.706;2024-02-28T02:26:20;6.40;99.90
11035;DHT22;5571;48.110;-1.706;2024-02-28T02:28:46;6.50;99.90
11035;DHT22;5571;48.110;-1.706;2024-02-28T02:31:12;6.50;99.90
11035;DHT22;5571;48.110;-1.706;2024-02-28T02:33:38;6.60;99.90
11035;DHT22;5571;48.110;-1.706;2024-02-28T02:36:04;6.60;99.90
11035;DHT22;5571;48.110;-1.706;2024-02-28T02:38:29;6.50;99.90
11035;DHT22;5571;48.110;-1.706;2024-02-28T02:40:55;6.50;99.90
11035;DHT22;5571;48.110;-1.706;2024-02-28T02:43:21;6.50;99.90
11035;DHT22;5571;48.110;-1.706;2024-02-28T02:45:46;6.60;99.90
11035;DHT22;5571;48.110;-1.706;2024-02-28T02:48:12;6.60;99.90
11035;DHT22;5571;48.110;-1.706;2024-02-28T02:50:38;6.60;99.90
11035;DHT22;5571;48.110;-1.706;2024-02-28T02:53:03;6.70;99.90
11035;DHT22;5571;48.110;-1.706;2024-02-28T02:55:29;6.70;99.90
11035;DHT22;5571;48.110;-1.706;2024-02-28T02:57:55;6.70;99.90
11035;DHT22;5571;48.110;-1.706;2024-02-28T03:00:22;6.70;99.90
11035;DHT22;5571;48.110;-1.706;2024-02-28T03:02:47;6.80;99.90
11035;DHT22;5571;48.110;-1.706;2024-02-28T03:05:13;6.70;99.90
11035;DHT22;5571;48.110;-1.706;2024-02-28T03:07:39;6.70;99.90
11035;DHT22;5571;48.110;-1.706;2024-02-28T03:10:05;6.80;99.90
11035;DHT22;5571;48.110;-1.706;2024-02-28T03:12:31;6.80;99.90
11035;DHT22;5571;48.110;-1.706;2024-02-28T03:14:57;6.80;99.90
11035;DHT22;5571;48.110;-1.706;2024-02-28T03:17:22;6.80;99.90
11035;DHT22;5571;48.110;-1.706;2024-02-28T03:19:48;6.80;99.90
11035;DHT22;5571;48.110;-1.706;2024-02-28T03:22:14;6.90;99.90
11035;DHT22;5571;48.110;-1.706;2024-02-28T03:24:40;6.90;99.90
11035;DHT22;5571;48.110;-1.706;2024-02-28T03:27:05;6.80;99.90
11035;DHT22;5571;48.110;-1.706;2024-02-28T03:29:31;6.80;99.90
11035;DHT22;5571;48.110;-1.706;2024-02-28T03:31:58;6.80;99.90
11035;DHT22;5571;48.110;-1.706;2024-02-28T03:34:23;6.80;99.90
11035;DHT22;5571;48.110;-1.706;2024-02-28T03:36:49;6.80;99.90
11035;DHT22;5571;48.110;-1.706;2024-02-28T03:39:15;6.80;99.90
11035;DHT22;5571;48.110;-1.706;2024-02-28T03:41:41;6.70;99.90
11035;DHT22;5571;48.110;-1.706;2024-02-28T03:44:06;6.80;99.90
11035;DHT22;5571;48.110;-1.706;2024-02-28T03:46:34;6.70;99.90
11035;DHT22;5571;48.110;-1.706;2024-02-28T03:49:00;6.80;99.90
11035;DHT22;5571;48.110;-1.706;2024-02-28T03:51:25;6.80;99.90
11035;DHT22;5571;48.110;-1.706;2024-02-28T03:53:51;6.80;99.90
11035;DHT22;5571;48.110;-1.706;2024-02-28T03:56:26;6.80;99.90
11035;DHT22;5571;48.110;-1.706;2024-02-28T03:58:53;6.90;99.90
11035;DHT22;5571;48.110;-1.706;2024-02-28T04:01:18;6.90;99.90
11035;DHT22;5571;48.110;-1.706;2024-02-28T04:03:44;6.90;99.90
11035;DHT22;5571;48.110;-1.706;2024-02-28T04:06:11;7.00;99.90
11035;DHT22;5571;48.110;-1.706;2024-02-28T04:08:37;7.10;99.90
11035;DHT22;5571;48.110;-1.706;2024-02-28T04:11:03;7.10;99.90
11035;DHT22;5571;48.110;-1.706;2024-02-28T04:13:29;7.10;99.90
11035;DHT22;5571;48.110;-1.706;2024-02-28T04:15:54;7.20;99.90
11035;DHT22;5571;48.110;-1.706;2024-02-28T04:18:21;7.20;99.90
11035;DHT22;5571;48.110;-1.706;2024-02-28T04:20:46;7.20;99.90
11035;DHT22;5571;48.110;-1.706;2024-02-28T04:23:12;7.20;99.90
11035;DHT22;5571;48.110;-1.706;2024-02-28T04:25:38;7.20;99.90
11035;DHT22;5571;48.110;-1.706;2024-02-28T04:28:06;7.10;99.90
11035;DHT22;5571;48.110;-1.706;2024-02-28T04:30:33;7.10;99.90
11035;DHT22;5571;48.110;-1.706;2024-02-28T04:32:58;7.10;99.90
11035;DHT22;5571;48.110;-1.706;2024-02-28T04:35:24;7.00;99.90
11035;DHT22;5571;48.110;-1.706;2024-02-28T04:37:49;7.00;99.90
11035;DHT22;5571;48.110;-1.706;2024-02-28T04:40:15;7.00;99.90
11035;DHT22;5571;48.110;-1.706;2024-02-28T04:42:41;7.00;99.90
11035;DHT22;5571;48.110;-1.706;2024-02-28T04:45:09;7.00;99.90
11035;DHT22;5571;48.110;-1.706;2024-02-28T04:47:35;7.00;99.90
11035;DHT22;5571;48.110;-1.706;2024-02-28T04:50:01;7.00;99.90
11035;DHT22;5571;48.110;-1.706;2024-02-28T04:52:27;7.10;99.90
11035;DHT22;5571;48.110;-1.706;2024-02-28T04:54:52;7.10;99.90
11035;DHT22;5571;48.110;-1.706;2024-02-28T04:57:19;7.10;99.90
11035;DHT22;5571;48.110;-1.706;2024-02-28T04:59:45;7.10;99.90
11035;DHT22;5571;48.110;-1.706;2024-02-28T05:02:11;7.20;99.90
11035;DHT22;5571;48.110;-1.706;2024-02-28T05:04:37;7.20;99.90
11035;DHT22;5571;48.110;-1.706;2024-02-28T05:07:03;7.20;99.90
11035;DHT22;5571;48.110;-1.706;2024-02-28T05:09:29;7.20;99.90
11035;DHT22;5571;48.110;-1.706;2024-02-28T05:11:54;7.20;99.90
11035;DHT22;5571;48.110;-1.706;2024-02-28T05:14:20;7.20;99.90
11035;DHT22;5571;48.110;-1.706;2024-02-28T05:16:47;7.20;99.90
11035;DHT22;5571;48.110;-1.706;2024-02-28T05:19:13;7.20;99.90
11035;DHT22;5571;48.110;-1.706;2024-02-28T05:21:40;7.20;99.90
11035;DHT22;5571;48.110;-1.706;2024-02-28T05:24:07;7.20;99.90
11035;DHT22;5571;48.110;-1.706;2024-02-28T05:26:37;7.20;99.90
11035;DHT22;5571;48.110;-1.706;2024-02-28T05:29:04;7.20;99.90
11035;DHT22;5571;48.110;-1.706;2024-02-28T05:31:30;7.20;99.90
11035;DHT22;5571;48.110;-1.706;2024-02-28T05:33:57;7.20;99.90
11035;DHT22;5571;48.110;-1.706;2024-02-28T05:36:24;7.20;99.90
11035;DHT22;5571;48.110;-1.706;2024-02-28T05:38:50;7.20;99.90
11035;DHT22;5571;48.110;-1.706;2024-02-28T05:41:17;7.20;99.90
11035;DHT22;5571;48.110;-1.706;2024-02-28T05:43:43;7.20;99.90
11035;DHT22;5571;48.110;-1.706;2024-02-28T05:46:09;7.20;99.90
11035;DHT22;5571;48.110;-1.706;2024-02-28T05:48:34;7.20;99.90
11035;DHT22;5571;48.110;-1.706;2024-02-28T05:51:01;7.20;99.90
11035;DHT22;5571;48.110;-1.706;2024-02-28T05:53:27;7.20;99.90
11035;DHT22;5571;48.110;-1.706;2024-02-28T05:55:53;7.30;99.90
11035;DHT22;5571;48.110;-1.706;2024-02-28T05:58:19;7.30;99.90
11035;DHT22;5571;48.110;-1.706;2024-02-28T06:00:45;7.30;99.90
11035;DHT22;5571;48.110;-1.706;2024-02-28T06:03:10;7.30;99.90
11035;DHT22;5571;48.110;-1.706;2024-02-28T06:05:36;7.30;99.90
11035;DHT22;5571;48.110;-1.706;2024-02-28T06:08:02;7.30;99.90
11035;DHT22;5571;48.110;-1.706;2024-02-28T06:10:27;7.30;99.90
11035;DHT22;5571;48.110;-1.706;2024-02-28T06:12:54;7.30;99.90
11035;DHT22;5571;48.110;-1.706;2024-02-28T06:15:19;7.30;99.90
11035;DHT22;5571;48.110;-1.706;2024-02-28T06:17:45;7.30;99.90
11035;DHT22;5571;48.110;-1.706;2024-02-28T06:20:10;7.30;99.90
11035;DHT22;5571;48.110;-1.706;2024-02-28T06:22:36;7.40;99.90
11035;DHT22;5571;48.110;-1.706;2024-02-28T06:25:02;7.40;99.90
11035;DHT22;5571;48.110;-1.706;2024-02-28T06:27:27;7.40;99.90
11035;DHT22;5571;48.110;-1.706;2024-02-28T06:29:53;7.40;99.90
11035;DHT22;5571;48.110;-1.706;2024-02-28T06:32:19;7.40;99.90
11035;DHT22;5571;48.110;-1.706;2024-02-28T06:34:44;7.40;99.90
11035;DHT22;5571;48.110;-1.706;2024-02-28T06:37:10;7.40;99.90
11035;DHT22;5571;48.110;-1.706;2024-02-28T06:39:35;7.40;99.90
11035;DHT22;5571;48.110;-1.706;2024-02-28T06:42:01;7.40;99.90
11035;DHT22;5571;48.110;-1.706;2024-02-28T06:44:27;7.40;99.90
11035;DHT22;5571;48.110;-1.706;2024-02-28T06:46:52;7.40;99.90
11035;DHT22;5571;48.110;-1.706;2024-02-28T06:49:18;7.40;99.90
11035;DHT22;5571;48.110;-1.706;2024-02-28T06:51:44;7.40;99.90
11035;DHT22;5571;48.110;-1.706;2024-02-28T06:54:10;7.40;99.90
11035;DHT22;5571;48.110;-1.706;2024-02-28T06:56:36;7.40;99.90
11035;DHT22;5571;48.110;-1.706;2024-02-28T06:59:02;7.40;99.90
11035;DHT22;5571;48.110;-1.706;2024-02-28T07:01:29;7.40;99.90
11035;DHT22;5571;48.110;-1.706;2024-02-28T07:03:55;7.40;99.90
11035;DHT22;5571;48.110;-1.706;2024-02-28T07:06:20;7.30;99.90
11035;DHT22;5571;48.110;-1.706;2024-02-28T07:08:46;7.40;99.90
11035;DHT22;5571;48.110;-1.706;2024-02-28T07:11:15;7.40;99.90
11035;DHT22;5571;48.110;-1.706;2024-02-28T07:13:41;7.40;99.90
11035;DHT22;5571;48.110;-1.706;2024-02-28T07:16:06;7.40;99.90
11035;DHT22;5571;48.110;-1.706;2024-02-28T07:18:33;7.40;99.90
11035;DHT22;5571;48.110;-1.706;2024-02-28T07:20:58;7.40;99.90
11035;DHT22;5571;48.110;-1.706;2024-02-28T07:23:24;7.40;99.90
11035;DHT22;5571;48.110;-1.706;2024-02-28T07:25:50;7.40;99.90
11035;DHT22;5571;48.110;-1.706;2024-02-28T07:28:15;7.40;99.90
11035;DHT22;5571;48.110;-1.706;2024-02-28T07:30:41;7.50;99.90
11035;DHT22;5571;48.110;-1.706;2024-02-28T07:33:07;7.40;99.90
11035;DHT22;5571;48.110;-1.706;2024-02-28T07:35:46;7.50;99.90
11035;DHT22;5571;48.110;-1.706;2024-02-28T07:38:12;7.50;99.90
11035;DHT22;5571;48.110;-1.706;2024-02-28T07:40:38;7.50;99.90
11035;DHT22;5571;48.110;-1.706;2024-02-28T07:43:03;7.50;99.90
11035;DHT22;5571;48.110;-1.706;2024-02-28T07:45:29;7.50;99.90
11035;DHT22;5571;48.110;-1.706;2024-02-28T07:47:55;7.50;99.90
11035;DHT22;5571;48.110;-1.706;2024-02-28T07:50:20;7.50;99.90
11035;DHT22;5571;48.110;-1.706;2024-02-28T07:52:46;7.60;99.90
11035;DHT22;5571;48.110;-1.706;2024-02-28T07:55:11;7.60;99.90
11035;DHT22;5571;48.110;-1.706;2024-02-28T07:57:37;7.50;99.90
11035;DHT22;5571;48.110;-1.706;2024-02-28T08:00:04;7.60;99.90
11035;DHT22;5571;48.110;-1.706;2024-02-28T08:02:29;7.60;99.90
11035;DHT22;5571;48.110;-1.706;2024-02-28T08:04:56;7.70;99.90
11035;DHT22;5571;48.110;-1.706;2024-02-28T08:07:22;7.70;99.90
11035;DHT22;5571;48.110;-1.706;2024-02-28T08:09:47;7.70;99.90
11035;DHT22;5571;48.110;-1.706;2024-02-28T08:12:13;7.70;99.90
11035;DHT22;5571;48.110;-1.706;2024-02-28T08:14:38;7.70;99.90
11035;DHT22;5571;48.110;-1.706;2024-02-28T08:17:04;7.70;99.90
11035;DHT22;5571;48.110;-1.706;2024-02-28T08:19:30;7.80;99.90
11035;DHT22;5571;48.110;-1.706;2024-02-28T08:21:55;7.80;99.90
11035;DHT22;5571;48.110;-1.706;2024-02-28T08:24:21;7.90;99.90
11035;DHT22;5571;48.110;-1.706;2024-02-28T08:26:46;7.90;99.90
11035;DHT22;5571;48.110;-1.706;2024-02-28T08:29:12;8.00;99.90
11035;DHT22;5571;48.110;-1.706;2024-02-28T08:31:43;8.00;99.90
11035;DHT22;5571;48.110;-1.706;2024-02-28T08:34:09;8.00;99.90
11035;DHT22;5571;48.110;-1.706;2024-02-28T08:36:35;8.10;99.90
11035;DHT22;5571;48.110;-1.706;2024-02-28T08:39:01;8.10;99.90
11035;DHT22;5571;48.110;-1.706;2024-02-28T08:41:26;8.10;99.90
11035;DHT22;5571;48.110;-1.706;2024-02-28T08:43:52;8.20;99.90
11035;DHT22;5571;48.110;-1.706;2024-02-28T08:46:17;8.20;99.90
11035;DHT22;5571;48.110;-1.706;2024-02-28T08:48:43;8.30;99.90
11035;DHT22;5571;48.110;-1.706;2024-02-28T08:51:09;8.30;99.90
11035;DHT22;5571;48.110;-1.706;2024-02-28T08:53:34;8.30;99.90
11035;DHT22;5571;48.110;-1.706;2024-02-28T08:56:00;8.30;99.90
11035;DHT22;5571;48.110;-1.706;2024-02-28T08:58:26;8.40;99.90
11035;DHT22;5571;48.110;-1.706;2024-02-28T09:00:51;8.40;99.90
11035;DHT22;5571;48.110;-1.706;2024-02-28T09:03:17;8.50;99.90
11035;DHT22;5571;48.110;-1.706;2024-02-28T09:05:43;8.50;99.90
11035;DHT22;5571;48.110;-1.706;2024-02-28T09:08:08;8.50;99.90
11035;DHT22;5571;48.110;-1.706;2024-02-28T09:10:34;8.60;99.90
11035;DHT22;5571;48.110;-1.706;2024-02-28T09:13:00;8.60;99.90
11035;DHT22;5571;48.110;-1.706;2024-02-28T09:15:25;8.60;99.90
11035;DHT22;5571;48.110;-1.706;2024-02-28T09:17:51;8.60;99.90
11035;DHT22;5571;48.110;-1.706;2024-02-28T09:20:17;8.60;99.90
11035;DHT22;5571;48.110;-1.706;2024-02-28T09:22:43;8.60;99.90
11035;DHT22;5571;48.110;-1.706;2024-02-28T09:25:09;8.70;99.90
11035;DHT22;5571;48.110;-1.706;2024-02-28T09:27:38;8.70;99.90
11035;DHT22;5571;48.110;-1.706;2024-02-28T09:30:04;8.80;99.90
11035;DHT22;5571;48.110;-1.706;2024-02-28T09:32:29;8.80;99.90
11035;DHT22;5571;48.110;-1.706;2024-02-28T09:34:55;8.80;99.90
11035;DHT22;5571;48.110;-1.706;2024-02-28T09:37:21;8.80;99.90
11035;DHT22;5571;48.110;-1.706;2024-02-28T09:39:48;8.90;99.90
11035;DHT22;5571;48.110;-1.706;2024-02-28T09:42:14;8.90;99.90
11035;DHT22;5571;48.110;-1.706;2024-02-28T09:44:40;8.90;99.90
11035;DHT22;5571;48.110;-1.706;2024-02-28T09:47:08;8.90;99.90
11035;DHT22;5571;48.110;-1.706;2024-02-28T09:49:34;9.00;99.90
11035;DHT22;5571;48.110;-1.706;2024-02-28T09:52:03;9.00;99.90
11035;DHT22;5571;48.110;-1.706;2024-02-28T09:54:29;9.10;99.90
11035;DHT22;5571;48.110;-1.706;2024-02-28T09:56:55;9.10;99.90
11035;DHT22;5571;48.110;-1.706;2024-02-28T09:59:23;9.20;99.90
11035;DHT22;5571;48.110;-1.706;2024-02-28T10:01:56;9.10;99.90
11035;DHT22;5571;48.110;-1.706;2024-02-28T10:04:24;9.10;99.90
11035;DHT22;5571;48.110;-1.706;2024-02-28T10:06:51;9.20;99.90
11035;DHT22;5571;48.110;-1.706;2024-02-28T10:09:16;9.20;99.90
11035;DHT22;5571;48.110;-1.706;2024-02-28T10:11:42;9.20;99.90
11035;DHT22;5571;48.110;-1.706;2024-02-28T10:14:18;9.20;99.90
11035;DHT22;5571;48.110;-1.706;2024-02-28T10:16:44;9.20;99.90
11035;DHT22;5571;48.110;-1.706;2024-02-28T10:19:10;9.30;99.90
11035;DHT22;5571;48.110;-1.706;2024-02-28T10:21:35;9.30;99.90
11035;DHT22;5571;48.110;-1.706;2024-02-28T10:24:01;9.30;99.90
11035;DHT22;5571;48.110;-1.706;2024-02-28T10:26:27;9.30;99.90
11035;DHT22;5571;48.110;-1.706;2024-02-28T10:28:52;9.40;99.90
11035;DHT22;5571;48.110;-1.706;2024-02-28T10:31:18;9.40;99.90
11035;DHT22;5571;48.110;-1.706;2024-02-28T10:33:46;9.40;99.90
11035;DHT22;5571;48.110;-1.706;2024-02-28T10:36:12;9.40;99.90
11035;DHT22;5571;48.110;-1.706;2024-02-28T10:38:38;9.50;99.90
11035;DHT22;5571;48.110;-1.706;2024-02-28T10:41:04;9.50;99.90
11035;DHT22;5571;48.110;-1.706;2024-02-28T10:43:29;9.50;99.90
11035;DHT22;5571;48.110;-1.706;2024-02-28T10:45:58;9.50;99.90
11035;DHT22;5571;48.110;-1.706;2024-02-28T10:48:25;9.60;99.90
11035;DHT22;5571;48.110;-1.706;2024-02-28T10:50:51;9.60;99.90
11035;DHT22;5571;48.110;-1.706;2024-02-28T10:53:21;9.60;99.90
11035;DHT22;5571;48.110;-1.706;2024-02-28T10:55:49;9.60;99.90
11035;DHT22;5571;48.110;-1.706;2024-02-28T10:58:15;9.60;99.90
11035;DHT22;5571;48.110;-1.706;2024-02-28T11:00:43;9.60;99.90
11035;DHT22;5571;48.110;-1.706;2024-02-28T11:03:15;9.60;99.90
11035;DHT22;5571;48.110;-1.706;2024-02-28T11:05:43;9.70;99.90
11035;DHT22;5571;48.110;-1.706;2024-02-28T11:08:21;9.70;99.90
11035;DHT22;5571;48.110;-1.706;2024-02-28T11:10:57;9.70;99.90
11035;DHT22;5571;48.110;-1.706;2024-02-28T11:13:27;9.70;99.90
11035;DHT22;5571;48.110;-1.706;2024-02-28T11:15:54;9.80;99.90
11035;DHT22;5571;48.110;-1.706;2024-02-28T11:18:22;9.80;99.90
11035;DHT22;5571;48.110;-1.706;2024-02-28T11:20:48;9.80;99.90
11035;DHT22;5571;48.110;-1.706;2024-02-28T11:23:14;9.90;99.90
11035;DHT22;5571;48.110;-1.706;2024-02-28T11:25:42;9.90;99.90
11035;DHT22;5571;48.110;-1.706;2024-02-28T11:28:09;10.00;99.90
11035;DHT22;5571;48.110;-1.706;2024-02-28T11:30:34;10.00;99.90
11035;DHT22;5571;48.110;-1.706;2024-02-28T11:33:00;10.10;99.90
11035;DHT22;5571;48.110;-1.706;2024-02-28T11:35:26;10.10;99.90
11035;DHT22;5571;48.110;-1.706;2024-02-28T11:37:54;10.10;99.90
11035;DHT22;5571;48.110;-1.706;2024-02-28T11:40:26;10.20;99.90
11035;DHT22;5571;48.110;-1.706;2024-02-28T11:42:52;10.30;99.90
11035;DHT22;5571;48.110;-1.706;2024-02-28T11:45:19;10.20;99.90
11035;DHT22;5571;48.110;-1.706;2024-02-28T11:47:45;10.30;99.90
11035;DHT22;5571;48.110;-1.706;2024-02-28T11:50:11;10.30;99.90
11035;DHT22;5571;48.110;-1.706;2024-02-28T11:52:36;10.30;99.90
11035;DHT22;5571;48.110;-1.706;2024-02-28T11:55:03;10.40;99.90
11035;DHT22;5571;48.110;-1.706;2024-02-28T11:57:29;10.40;99.90
11035;DHT22;5571;48.110;-1.706;2024-02-28T12:00:07;10.50;99.90
11035;DHT22;5571;48.110;-1.706;2024-02-28T12:02:33;10.50;99.90
11035;DHT22;5571;48.110;-1.706;2024-02-28T12:05:02;10.60;99.90
11035;DHT22;5571;48.110;-1.706;2024-02-28T12:07:30;10.70;99.90
11035;DHT22;5571;48.110;-1.706;2024-02-28T12:09:55;10.70;99.90
11035;DHT22;5571;48.110;-1.706;2024-02-28T12:12:21;10.70;99.90
11035;DHT22;5571;48.110;-1.706;2024-02-28T12:14:47;10.80;99.90
11035;DHT22;5571;48.110;-1.706;2024-02-28T12:17:14;10.80;99.90
11035;DHT22;5571;48.110;-1.706;2024-02-28T12:19:40;10.80;99.90
11035;DHT22;5571;48.110;-1.706;2024-02-28T12:22:05;10.90;99.90
11035;DHT22;5571;48.110;-1.706;2024-02-28T12:24:32;10.90;99.90
11035;DHT22;5571;48.110;-1.706;2024-02-28T12:26:58;11.00;99.90
11035;DHT22;5571;48.110;-1.706;2024-02-28T12:29:24;11.00;99.90
11035;DHT22;5571;48.110;-1.706;2024-02-28T12:31:49;11.00;99.90
11035;DHT22;5571;48.110;-1.706;2024-02-28T12:34:15;10.90;99.90
11035;DHT22;5571;48.110;-1.706;2024-02-28T12:36:41;10.90;99.90
11035;DHT22;5571;48.110;-1.706;2024-02-28T12:39:07;10.90;99.90
11035;DHT22;5571;48.110;-1.706;2024-02-28T12:41:37;10.90;99.90
11035;DHT22;5571;48.110;-1.706;2024-02-28T12:44:04;10.90;99.90
11035;DHT22;5571;48.110;-1.706;2024-02-28T12:46:30;10.90;99.90
11035;DHT22;5571;48.110;-1.706;2024-02-28T12:48:55;10.90;99.90
11035;DHT22;5571;48.110;-1.706;2024-02-28T12:51:41;11.00;99.90
11035;DHT22;5571;48.110;-1.706;2024-02-28T12:54:08;11.00;99.90
11035;DHT22;5571;48.110;-1.706;2024-02-28T12:56:38;11.00;99.90
11035;DHT22;5571;48.110;-1.706;2024-02-28T12:59:05;11.00;99.90
11035;DHT22;5571;48.110;-1.706;2024-02-28T13:01:33;11.00;99.90
11035;DHT22;5571;48.110;-1.706;2024-02-28T13:03:58;11.10;99.90
11035;DHT22;5571;48.110;-1.706;2024-02-28T13:06:24;11.10;99.90
11035;DHT22;5571;48.110;-1.706;2024-02-28T13:08:50;11.10;99.90
11035;DHT22;5571;48.110;-1.706;2024-02-28T13:11:22;11.10;99.90
11035;DHT22;5571;48.110;-1.706;2024-02-28T13:13:48;11.10;99.90
11035;DHT22;5571;48.110;-1.706;2024-02-28T13:16:16;11.10;99.90
11035;DHT22;5571;48.110;-1.706;2024-02-28T13:18:41;11.10;99.90
11035;DHT22;5571;48.110;-1.706;2024-02-28T13:21:07;11.20;99.90
11035;DHT22;5571;48.110;-1.706;2024-02-28T13:23:33;11.20;99.90
11035;DHT22;5571;48.110;-1.706;2024-02-28T13:25:59;11.30;99.90
11035;DHT22;5571;48.110;-1.706;2024-02-28T13:28:26;11.20;99.90
11035;DHT22;5571;48.110;-1.706;2024-02-28T13:30:58;11.20;99.90
11035;DHT22;5571;48.110;-1.706;2024-02-28T13:33:24;11.20;99.90
11035;DHT22;5571;48.110;-1.706;2024-02-28T13:35:50;11.20;99.90
11035;DHT22;5571;48.110;-1.706;2024-02-28T13:38:16;11.20;99.90
11035;DHT22;5571;48.110;-1.706;2024-02-28T13:40:42;11.20;99.90
11035;DHT22;5571;48.110;-1.706;2024-02-28T13:43:10;11.20;99.90
11035;DHT22;5571;48.110;-1.706;2024-02-28T13:45:37;11.20;99.90
11035;DHT22;5571;48.110;-1.706;2024-02-28T13:48:03;11.20;99.90
11035;DHT22;5571;48.110;-1.706;2024-02-28T13:50:28;11.20;99.90
11035;DHT22;5571;48.110;-1.706;2024-02-28T13:52:57;11.20;99.90
11035;DHT22;5571;48.110;-1.706;2024-02-28T13:55:23;11.20;99.90
11035;DHT22;5571;48.110;-1.706;2024-02-28T13:57:49;11.20;99.90
11035;DHT22;5571;48.110;-1.706;2024-02-28T14:00:15;11.30;99.90
11035;DHT22;5571;48.110;-1.706;2024-02-28T14:02:40;11.30;99.90
11035;DHT22;5571;48.110;-1.706;2024-02-28T14:05:06;11.40;99.90
11035;DHT22;5571;48.110;-1.706;2024-02-28T14:07:35;11.40;99.90
11035;DHT22;5571;48.110;-1.706;2024-02-28T14:10:03;11.40;99.90
11035;DHT22;5571;48.110;-1.706;2024-02-28T14:12:29;11.40;99.90
11035;DHT22;5571;48.110;-1.706;2024-02-28T14:14:55;11.40;99.90
11035;DHT22;5571;48.110;-1.706;2024-02-28T14:17:20;11.40;99.90
11035;DHT22;5571;48.110;-1.706;2024-02-28T14:19:46;11.50;99.90
11035;DHT22;5571;48.110;-1.706;2024-02-28T14:22:13;11.40;99.90
11035;DHT22;5571;48.110;-1.706;2024-02-28T14:24:39;11.40;99.90
11035;DHT22;5571;48.110;-1.706;2024-02-28T14:27:05;11.40;99.90
11035;DHT22;5571;48.110;-1.706;2024-02-28T14:29:31;11.40;99.90
11035;DHT22;5571;48.110;-1.706;2024-02-28T14:31:56;11.40;99.90
11035;DHT22;5571;48.110;-1.706;2024-02-28T14:34:22;11.40;99.90
11035;DHT22;5571;48.110;-1.706;2024-02-28T14:36:48;11.40;99.90
11035;DHT22;5571;48.110;-1.706;2024-02-28T14:39:15;11.40;99.90
11035;DHT22;5571;48.110;-1.706;2024-02-28T14:41:44;11.40;99.90
11035;DHT22;5571;48.110;-1.706;2024-02-28T14:44:11;11.40;99.90
11035;DHT22;5571;48.110;-1.706;2024-02-28T14:46:36;11.50;99.90
11035;DHT22;5571;48.110;-1.706;2024-02-28T14:49:02;11.50;99.90
11035;DHT22;5571;48.110;-1.706;2024-02-28T14:51:28;11.50;99.90
11035;DHT22;5571;48.110;-1.706;2024-02-28T14:53:58;11.50;99.90
11035;DHT22;5571;48.110;-1.706;2024-02-28T14:56:24;11.40;99.90
11035;DHT22;5571;48.110;-1.706;2024-02-28T14:58:49;11.50;99.90
11035;DHT22;5571;48.110;-1.706;2024-02-28T15:01:17;11.40;99.90
11035;DHT22;5571;48.110;-1.706;2024-02-28T15:03:42;11.40;99.90
11035;DHT22;5571;48.110;-1.706;2024-02-28T15:06:08;11.40;99.90
11035;DHT22;5571;48.110;-1.706;2024-02-28T15:08:34;11.40;99.90
11035;DHT22;5571;48.110;-1.706;2024-02-28T15:10:59;11.40;99.90
11035;DHT22;5571;48.110;-1.706;2024-02-28T15:13:25;11.40;99.90
11035;DHT22;5571;48.110;-1.706;2024-02-28T15:15:50;11.30;99.90
11035;DHT22;5571;48.110;-1.706;2024-02-28T15:18:16;11.40;99.90
11035;DHT22;5571;48.110;-1.706;2024-02-28T15:20:42;11.40;99.90
11035;DHT22;5571;48.110;-1.706;2024-02-28T15:23:07;11.40;99.90
11035;DHT22;5571;48.110;-1.706;2024-02-28T15:25:33;11.30;99.90
11035;DHT22;5571;48.110;-1.706;2024-02-28T15:27:59;11.30;99.90
11035;DHT22;5571;48.110;-1.706;2024-02-28T15:30:24;11.40;99.90
11035;DHT22;5571;48.110;-1.706;2024-02-28T15:32:50;11.30;99.90
11035;DHT22;5571;48.110;-1.706;2024-02-28T15:35:15;11.30;99.90